Time;durP1;ratioP1;P1;durP2;ratioP2;P2;SDS_P1;SDS_P2;PMS_P1;PMS_P2;Temp;Humidity;BMP_temperature;BMP_pressure;BME280_temperature;BME280_humidity;BME280_pressure;Samples;Min_cycle;Max_cycle;Signal;HPM_P1;HPM_P2
2021/11/29 00:00:11;;;;;;;4.53;3.13;;;;;;;10.45;73.22;91483.75;5099533;28;20024;-38
2021/11/29 00:02:36;;;;;;;9.68;3.08;;;;;;;10.33;74.05;91469.91;5097730;28;20030;-38
2021/11/29 00:05:02;;;;;;;3.17;2.17;;;;;;;10.50;73.85;91486.13;5097958;28;20028;-39
2021/11/29 00:07:28;;;;;;;7.13;4.22;;;;;;;10.49;74.44;91493.00;5098788;28;20049;-38
2021/11/29 00:09:53;;;;;;;7.68;3.30;;;;;;;10.61;74.18;91499.25;5094014;28;20024;-39
2021/11/29 00:12:19;;;;;;;9.18;5.53;;;;;;;10.61;74.54;91493.72;5099629;28;20024;-39
2021/11/29 00:14:44;;;;;;;13.20;5.35;;;;;;;10.65;74.60;91496.75;5098903;28;20500;-39
2021/11/29 00:17:10;;;;;;;7.25;2.85;;;;;;;10.63;72.77;91491.09;5097389;28;20024;-38
2021/11/29 00:19:35;;;;;;;10.10;6.15;;;;;;;10.57;73.60;91478.97;5097714;28;20420;-38
2021/11/29 00:22:01;;;;;;;3.50;1.95;;;;;;;10.59;72.89;91474.28;5097418;28;20561;-38
2021/11/29 00:24:27;;;;;;;3.15;2.28;;;;;;;10.54;73.37;91475.38;5098116;28;20050;-38
2021/11/29 00:26:52;;;;;;;2.45;2.20;;;;;;;10.54;73.03;91478.13;5097521;28;20020;-39
2021/11/29 00:29:18;;;;;;;3.17;2.35;;;;;;;10.39;74.32;91478.56;5098509;28;20024;-39
2021/11/29 00:31:43;;;;;;;3.63;2.63;;;;;;;10.28;74.85;91484.03;5099178;28;20027;-38
2021/11/29 00:34:10;;;;;;;2.78;2.40;;;;;;;10.37;74.67;91488.75;5099353;28;20489;-39
2021/11/29 00:36:35;;;;;;;5.70;2.45;;;;;;;10.36;74.01;91477.00;5098078;28;20123;-38
2021/11/29 00:39:01;;;;;;;3.47;2.42;;;;;;;10.17;75.25;91446.13;5097748;28;20027;-38
2021/11/29 00:41:26;;;;;;;6.43;2.80;;;;;;;10.19;75.38;91458.00;5098280;28;20046;-38
2021/11/29 00:43:52;;;;;;;3.15;2.40;;;;;;;10.17;75.71;91437.84;5098599;28;20058;-38
2021/11/29 00:46:18;;;;;;;6.10;2.72;;;;;;;10.24;75.08;91442.44;5098237;28;20034;-38
2021/11/29 00:48:43;;;;;;;7.43;2.90;;;;;;;10.18;76.14;91428.97;5101783;28;20031;-38
2021/11/29 00:51:09;;;;;;;4.38;3.00;;;;;;;10.28;76.30;91410.31;5104644;28;20027;-37
2021/11/29 00:53:34;;;;;;;7.20;3.42;;;;;;;10.23;76.51;91402.34;5105813;28;20107;-38
2021/11/29 00:56:00;;;;;;;7.15;5.22;;;;;;;10.26;75.92;91407.41;5103022;28;20055;-38
2021/11/29 00:58:25;;;;;;;8.90;5.28;;;;;;;10.30;76.40;91401.44;5103706;28;20015;-37
2021/11/29 01:00:51;;;;;;;14.43;7.28;;;;;;;10.28;76.59;91399.28;5102469;28;20054;-37
2021/11/29 01:03:16;;;;;;;5.90;3.83;;;;;;;10.39;76.43;91393.06;5101018;28;20024;-37
2021/11/29 01:05:42;;;;;;;6.72;3.97;;;;;;;10.44;76.08;91394.72;5102271;28;20028;-37
2021/11/29 01:08:08;;;;;;;11.18;5.82;;;;;;;10.31;76.18;91394.59;5102704;28;20024;-38
2021/11/29 01:10:33;;;;;;;5.32;3.97;;;;;;;10.17;76.98;91399.97;5100792;28;20039;-38
2021/11/29 01:12:59;;;;;;;4.82;3.50;;;;;;;10.18;76.92;91384.16;5101356;28;20047;-38
2021/11/29 01:15:30;;;;;;;6.18;3.80;;;;;;;10.24;77.04;91396.28;5101995;28;20441;-38
2021/11/29 01:17:56;;;;;;;6.80;4.30;;;;;;;10.26;77.18;91388.13;5100884;28;20027;-39
2021/11/29 01:20:21;;;;;;;7.50;4.63;;;;;;;10.24;77.38;91388.00;5103246;28;20027;-38
2021/11/29 01:22:47;;;;;;;8.75;3.97;;;;;;;10.30;76.81;91399.41;5102469;28;20553;-38
2021/11/29 01:25:13;;;;;;;7.63;4.35;;;;;;;10.12;77.57;91403.78;5101497;28;20548;-37
2021/11/29 01:27:39;;;;;;;12.60;5.35;;;;;;;10.16;78.11;91426.09;5100690;28;20059;-38
2021/11/29 01:30:06;;;;;;;7.00;4.50;;;;;;;10.03;77.93;91429.38;5097853;28;20023;-38
2021/11/29 01:32:32;;;;;;;9.07;3.83;;;;;;;10.03;78.23;91426.59;5098940;28;20023;-38
2021/11/29 01:34:58;;;;;;;6.57;3.78;;;;;;;10.04;78.28;91428.06;5098806;28;20584;-38
2021/11/29 01:37:23;;;;;;;6.57;4.28;;;;;;;10.16;77.88;91430.88;5100586;28;20057;-37
2021/11/29 01:39:49;;;;;;;6.95;4.35;;;;;;;10.20;77.73;91437.34;5104532;27;20101;-38
2021/11/29 01:42:15;;;;;;;6.05;4.28;;;;;;;10.27;77.84;91435.69;5107521;27;20110;-38
2021/11/29 01:44:40;;;;;;;6.72;4.57;;;;;;;10.35;77.37;91433.47;5101613;28;20103;-38
2021/11/29 01:47:06;;;;;;;8.07;4.55;;;;;;;10.16;77.43;91404.03;5101567;28;20107;-37
2021/11/29 01:49:32;;;;;;;25.38;3.88;;;;;;;10.31;76.96;91403.59;5099981;28;20032;-38
2021/11/29 01:51:58;;;;;;;7.32;3.80;;;;;;;10.34;77.35;91401.66;5101772;28;20045;-37
2021/11/29 01:54:25;;;;;;;4.78;3.30;;;;;;;10.32;77.22;91382.97;5102203;28;20015;-38
2021/11/29 01:56:50;;;;;;;5.72;3.08;;;;;;;10.18;78.04;91387.59;5097613;28;20023;-38
2021/11/29 01:59:16;;;;;;;7.32;4.07;;;;;;;10.01;79.22;91376.84;5099733;28;20028;-38
2021/11/29 02:01:41;;;;;;;7.15;4.40;;;;;;;9.80;79.99;91368.66;5099130;28;20080;-38
2021/11/29 02:04:11;;;;;;;7.68;5.13;;;;;;;10.06;79.53;91383.34;5101318;28;20444;-38
2021/11/29 02:06:37;;;;;;;5.82;4.28;;;;;;;9.64;81.38;91367.63;5100354;28;20028;-38
2021/11/29 02:09:04;;;;;;;7.50;5.00;;;;;;;9.77;81.25;91372.56;5100032;28;20023;-39
2021/11/29 02:11:31;;;;;;;8.30;4.80;;;;;;;9.50;82.04;91372.97;5099993;28;20051;-38
2021/11/29 02:13:58;;;;;;;6.85;4.10;;;;;;;9.51;83.03;91377.16;5090147;28;20032;-38
2021/11/29 02:16:24;;;;;;;8.15;5.13;;;;;;;9.59;82.49;91379.72;5099352;28;20146;-38
2021/11/29 02:18:51;;;;;;;5.18;4.05;;;;;;;9.78;81.81;91377.53;5100347;28;20440;-38
2021/11/29 02:21:19;;;;;;;5.97;4.22;;;;;;;9.86;81.44;91380.03;5096845;28;20731;-37
2021/11/29 02:23:55;;;;;;;4.82;3.33;;;;;;;9.76;81.44;91365.63;5099680;28;20031;-38
2021/11/29 02:26:25;;;;;;;4.60;3.20;;;;;;;9.84;80.83;91366.88;5100525;28;20058;-37
2021/11/29 02:29:13;;;;;;;4.85;2.92;;;;;;;9.93;80.61;91368.09;5098499;28;20026;-37
2021/11/29 02:31:45;;;;;;;4.82;3.42;;;;;;;9.80;81.45;91352.84;5096715;28;20231;-37
2021/11/29 02:34:15;;;;;;;6.00;4.20;;;;;;;9.74;82.36;91343.47;5100396;28;20023;-38
2021/11/29 02:36:41;;;;;;;7.00;4.15;;;;;;;9.57;82.27;91319.69;5098069;28;20040;-37
2021/11/29 02:39:07;;;;;;;5.97;3.90;;;;;;;9.60;82.56;91324.00;5098046;28;20031;-37
2021/11/29 02:41:33;;;;;;;7.05;4.15;;;;;;;9.71;82.19;91326.09;5096764;28;20063;-38
2021/11/29 02:43:59;;;;;;;5.55;4.05;;;;;;;9.76;82.15;91325.03;5100673;28;20043;-38
2021/11/29 02:46:24;;;;;;;6.28;4.22;;;;;;;9.52;82.36;91303.50;5098662;28;20090;-38
2021/11/29 02:48:51;;;;;;;5.63;4.47;;;;;;;9.76;81.93;91327.78;5098955;28;20119;-38
2021/11/29 02:51:27;;;;;;;6.45;4.82;;;;;;;9.71;81.86;91311.59;5100812;28;20035;-38
2021/11/29 02:54:02;;;;;;;8.57;5.85;;;;;;;9.40;83.15;91300.00;5098113;28;20538;-38
2021/11/29 02:56:28;;;;;;;6.45;4.55;;;;;;;9.57;82.09;91307.97;5097313;28;20024;-38
2021/11/29 02:58:54;;;;;;;6.63;2.78;;;;;;;9.57;81.75;91277.66;5098507;28;20506;-37
2021/11/29 03:01:19;;;;;;;4.45;3.17;;;;;;;9.80;81.09;91300.47;5098296;28;20107;-38
2021/11/29 03:03:51;;;;;;;4.97;3.08;;;;;;;9.74;81.18;91307.66;5095833;28;20026;-38
2021/11/29 03:06:18;;;;;;;6.28;3.05;;;;;;;9.67;82.09;91303.06;5089120;28;20078;-38
2021/11/29 03:08:43;;;;;;;5.38;3.28;;;;;;;9.69;82.23;91312.19;5098821;28;20019;-39
2021/11/29 03:11:09;;;;;;;6.25;4.65;;;;;;;9.71;82.08;91311.59;5100575;28;20027;-38
2021/11/29 03:13:35;;;;;;;12.00;7.93;;;;;;;9.78;81.38;91322.41;5097698;28;20473;-39
2021/11/29 03:16:01;;;;;;;12.77;7.70;;;;;;;9.82;81.08;91322.66;5096521;28;20032;-38
2021/11/29 03:18:36;;;;;;;5.68;3.72;;;;;;;9.82;81.12;91321.91;5102208;28;20051;-39
2021/11/29 03:21:02;;;;;;;5.43;3.33;;;;;;;9.85;80.85;91306.97;5099942;28;20300;-40
2021/11/29 03:23:28;;;;;;;5.43;3.40;;;;;;;9.86;81.11;91289.81;5097309;28;20039;-38
2021/11/29 03:25:53;;;;;;;5.45;3.15;;;;;;;9.57;82.78;91294.19;5097884;28;20019;-39
2021/11/29 03:28:19;;;;;;;5.10;3.40;;;;;;;9.49;83.06;91280.63;5097366;28;20026;-38
2021/11/29 03:30:44;;;;;;;5.25;3.55;;;;;;;9.29;84.29;91256.59;5097635;28;20504;-38
2021/11/29 03:33:10;;;;;;;7.10;4.25;;;;;;;9.39;84.32;91248.97;5096620;28;20110;-39
2021/11/29 03:35:36;;;;;;;11.27;6.55;;;;;;;9.39;84.63;91265.50;5097504;28;20421;-39
2021/11/29 03:38:03;;;;;;;12.52;8.63;;;;;;;9.50;83.84;91253.78;5101256;28;20027;-37
2021/11/29 03:40:28;;;;;;;15.15;10.40;;;;;;;9.49;83.89;91264.09;5098585;28;20086;-37
2021/11/29 03:42:54;;;;;;;10.18;5.93;;;;;;;9.57;83.23;91296.94;5100696;28;20516;-38
2021/11/29 03:45:20;;;;;;;8.95;6.45;;;;;;;9.45;83.95;91285.88;5098485;28;20030;-38
2021/11/29 03:47:46;;;;;;;7.45;5.03;;;;;;;9.18;85.02;91272.47;5096113;28;20412;-38
2021/11/29 03:50:11;;;;;;;9.20;6.25;;;;;;;9.18;86.43;91274.53;5098036;28;20063;-38
2021/11/29 03:52:37;;;;;;;8.50;4.88;;;;;;;9.20;86.26;91285.66;5100026;28;20459;-38
2021/11/29 03:55:03;;;;;;;8.93;6.25;;;;;;;9.12;86.81;91287.88;5099200;28;20023;-38
2021/11/29 03:57:28;;;;;;;10.88;4.78;;;;;;;9.27;86.78;91295.72;5095726;28;20111;-38
2021/11/29 03:59:54;;;;;;;7.80;4.15;;;;;;;9.29;86.57;91289.66;5097632;28;20456;-38
2021/11/29 04:02:19;;;;;;;9.60;5.30;;;;;;;9.10;86.97;91296.75;5096955;28;20409;-38
2021/11/29 04:04:45;;;;;;;32.92;19.73;;;;;;;8.97;88.54;91299.28;5099987;28;20042;-38
2021/11/29 04:07:11;;;;;;;11.07;8.60;;;;;;;9.12;88.13;91298.91;5101024;28;20032;-39
2021/11/29 04:09:36;;;;;;;13.73;8.77;;;;;;;9.16;87.17;91280.59;5099057;28;20071;-38
2021/11/29 04:12:02;;;;;;;16.55;9.90;;;;;;;9.06;88.23;91279.97;5097384;28;20092;-38
2021/11/29 04:14:29;;;;;;;16.75;10.98;;;;;;;9.09;87.77;91287.06;5097084;28;20032;-38
2021/11/29 04:16:54;;;;;;;20.35;12.18;;;;;;;8.90;88.58;91289.94;5097804;28;20104;-38
2021/11/29 04:19:20;;;;;;;11.65;10.10;;;;;;;8.97;88.51;91305.53;5094588;28;20485;-38
2021/11/29 04:21:47;;;;;;;11.70;9.52;;;;;;;9.05;88.54;91295.03;5099712;28;20035;-38
2021/11/29 04:24:13;;;;;;;31.02;16.60;;;;;;;8.91;88.93;91283.13;5092124;28;20047;-38
2021/11/29 04:26:40;;;;;;;22.50;13.95;;;;;;;9.13;88.92;91317.59;5102873;28;20055;-39
2021/11/29 04:29:16;;;;;;;17.90;10.18;;;;;;;9.18;88.80;91352.31;5103376;28;20027;-38
2021/11/29 04:31:41;;;;;;;14.43;8.23;;;;;;;9.29;88.23;91356.44;5101041;28;20616;-37
2021/11/29 04:34:08;;;;;;;10.75;6.22;;;;;;;9.34;88.65;91365.69;5101594;28;20028;-38
2021/11/29 04:36:34;;;;;;;19.58;12.02;;;;;;;9.38;89.30;91360.44;5101536;28;20617;-38
2021/11/29 04:39:00;;;;;;;33.45;20.75;;;;;;;9.56;88.37;91373.34;5101075;28;20504;-37
2021/11/29 04:41:26;;;;;;;8.35;4.50;;;;;;;9.60;88.51;91372.88;5100535;28;20030;-38
2021/11/29 04:43:52;;;;;;;13.00;4.38;;;;;;;9.64;88.30;91376.59;5100135;28;20110;-36
2021/11/29 04:46:18;;;;;;;8.75;4.47;;;;;;;9.61;88.73;91383.31;5100022;28;20032;-37
2021/11/29 04:48:43;;;;;;;8.57;5.28;;;;;;;9.67;88.52;91372.69;5099507;28;20024;-37
2021/11/29 04:51:09;;;;;;;15.15;9.18;;;;;;;9.71;88.05;91361.91;5101912;28;20060;-37
2021/11/29 04:53:35;;;;;;;5.82;4.68;;;;;;;9.66;87.32;91362.97;5092360;28;20114;-37
2021/11/29 04:56:01;;;;;;;13.85;7.53;;;;;;;9.55;86.61;91365.69;5100326;28;20046;-38
2021/11/29 04:58:27;;;;;;;3.95;2.28;;;;;;;9.74;85.93;91384.81;5105647;28;20137;-37
2021/11/29 05:00:52;;;;;;;2.42;2.05;;;;;;;9.67;85.54;91360.94;5101850;28;20027;-37
2021/11/29 05:03:19;;;;;;;4.82;2.75;;;;;;;9.71;85.66;91350.88;5102750;28;20028;-37
2021/11/29 05:05:45;;;;;;;5.85;4.50;;;;;;;9.79;84.90;91354.13;5100336;28;20394;-37
2021/11/29 05:08:10;;;;;;;3.20;2.22;;;;;;;9.69;84.99;91369.31;5100637;28;20081;-38
2021/11/29 05:10:36;;;;;;;5.03;3.38;;;;;;;9.55;85.82;91366.38;5099943;28;20134;-38
2021/11/29 05:13:01;;;;;;;3.22;2.03;;;;;;;9.39;87.26;91375.66;5098573;28;20057;-38
2021/11/29 05:15:27;;;;;;;4.90;2.28;;;;;;;9.45;87.81;91384.31;5103069;28;20491;-38
2021/11/29 05:17:52;;;;;;;5.88;2.90;;;;;;;9.35;88.32;91364.38;5098816;28;20119;-38
2021/11/29 05:20:18;;;;;;;3.20;2.25;;;;;;;9.36;88.11;91363.78;5091223;28;20055;-38
2021/11/29 05:22:43;;;;;;;8.60;2.13;;;;;;;9.51;87.57;91373.66;5100258;28;20038;-38
2021/11/29 05:25:09;;;;;;;2.53;1.92;;;;;;;9.63;86.79;91357.94;5097690;28;20028;-39
2021/11/29 05:27:35;;;;;;;4.93;2.20;;;;;;;9.54;86.81;91381.47;5101359;28;20035;-39
2021/11/29 05:30:00;;;;;;;1.80;1.23;;;;;;;9.51;86.62;91381.94;5102041;28;20023;-39
2021/11/29 05:32:26;;;;;;;9.80;2.10;;;;;;;9.47;86.94;91376.91;5098021;28;20024;-39
2021/11/29 05:34:51;;;;;;;6.00;2.45;;;;;;;9.40;87.10;91380.56;5098643;28;20023;-39
2021/11/29 05:37:17;;;;;;;3.83;1.30;;;;;;;9.21;88.26;91355.91;5100773;28;20058;-39
2021/11/29 05:39:42;;;;;;;2.03;1.30;;;;;;;9.15;88.62;91361.03;5100030;28;20027;-39
2021/11/29 05:42:08;;;;;;;3.53;1.77;;;;;;;9.13;89.02;91360.91;5101295;28;20084;-39
2021/11/29 05:44:34;;;;;;;11.13;6.25;;;;;;;9.14;89.12;91349.31;5100943;28;20043;-39
2021/11/29 05:47:00;;;;;;;7.60;4.20;;;;;;;9.25;88.69;91355.47;5098833;28;20027;-39
2021/11/29 05:49:25;;;;;;;6.88;6.13;;;;;;;9.14;88.59;91352.06;5097649;28;20105;-39
2021/11/29 05:51:53;;;;;;;5.10;3.22;;;;;;;8.99;89.32;91346.94;5099548;28;20039;-39
2021/11/29 05:54:18;;;;;;;3.25;1.80;;;;;;;9.21;89.03;91342.16;5096896;28;20802;-39
2021/11/29 05:56:44;;;;;;;1.83;1.30;;;;;;;9.23;88.56;91327.78;5096201;28;20085;-40
2021/11/29 05:59:09;;;;;;;3.10;2.35;;;;;;;9.25;88.46;91330.69;5096379;28;20049;-39
2021/11/29 06:01:35;;;;;;;2.85;1.98;;;;;;;9.31;88.64;91340.06;5097578;28;20032;-38
2021/11/29 06:04:01;;;;;;;8.30;4.45;;;;;;;9.31;88.34;91359.34;5088286;28;20036;-38
2021/11/29 06:06:26;;;;;;;16.17;9.77;;;;;;;9.23;88.57;91363.59;5111672;27;20053;-38
2021/11/29 06:08:52;;;;;;;12.35;7.80;;;;;;;9.37;88.61;91356.97;5099313;28;20046;-38
2021/11/29 06:11:18;;;;;;;18.38;10.23;;;;;;;9.51;87.99;91368.16;5095526;28;20055;-37
2021/11/29 06:13:44;;;;;;;17.30;11.25;;;;;;;9.54;87.21;91391.78;5099801;27;20087;-38
2021/11/29 06:16:10;;;;;;;10.07;6.32;;;;;;;9.53;86.16;91379.31;5103354;27;20055;-39
2021/11/29 06:18:35;;;;;;;6.47;4.38;;;;;;;9.77;85.50;91375.34;5098703;28;20536;-39
2021/11/29 06:21:01;;;;;;;6.95;3.60;;;;;;;9.48;85.96;91375.59;5097301;28;20409;-39
2021/11/29 06:23:27;;;;;;;6.03;3.85;;;;;;;9.24;87.05;91367.78;5098448;27;20088;-38
2021/11/29 06:25:52;;;;;;;6.88;3.78;;;;;;;9.28;87.08;91366.03;5098457;28;20032;-38
2021/11/29 06:28:18;;;;;;;5.38;2.45;;;;;;;9.34;87.60;91387.72;5095161;28;20110;-39
2021/11/29 06:30:43;;;;;;;4.00;1.83;;;;;;;9.48;86.58;91407.91;5095673;28;20118;-38
2021/11/29 06:33:09;;;;;;;1.27;1.05;;;;;;;9.52;86.54;91405.41;5097856;28;20028;-38
2021/11/29 06:35:35;;;;;;;1.75;1.65;;;;;;;9.56;86.28;91400.91;5099195;28;20051;-38
2021/11/29 06:38:05;;;;;;;1.50;1.40;;;;;;;9.56;86.06;91392.63;5098027;27;20859;-38
2021/11/29 06:40:32;;;;;;;8.35;6.63;;;;;;;9.62;85.84;91412.28;5097454;28;20096;-39
2021/11/29 06:42:58;;;;;;;13.30;8.88;;;;;;;9.65;85.99;91413.16;5093584;28;20051;-38
2021/11/29 06:45:23;;;;;;;17.63;10.93;;;;;;;9.68;85.54;91414.75;5095480;28;20582;-38
2021/11/29 06:47:49;;;;;;;16.23;10.70;;;;;;;9.70;85.39;91425.88;5096735;28;20041;-38
2021/11/29 06:50:15;;;;;;;16.58;12.18;;;;;;;9.77;84.74;91414.66;5097159;28;20424;-37
2021/11/29 06:52:41;;;;;;;12.88;7.43;;;;;;;9.77;84.90;91411.88;5098771;28;20115;-37
2021/11/29 06:55:08;;;;;;;16.20;10.90;;;;;;;9.57;85.04;91402.31;5099202;28;20556;-38
2021/11/29 06:57:34;;;;;;;21.90;13.35;;;;;;;9.65;84.96;91410.41;5096326;28;20493;-38
2021/11/29 06:59:59;;;;;;;14.77;9.57;;;;;;;9.61;85.07;91412.91;5098509;28;20040;-38
2021/11/29 07:02:28;;;;;;;14.77;12.15;;;;;;;9.50;85.19;91419.06;5092877;28;20035;-38
2021/11/29 07:04:54;;;;;;;12.07;9.10;;;;;;;9.32;86.70;91429.63;5095613;28;20032;-38
2021/11/29 07:07:20;;;;;;;19.13;14.13;;;;;;;9.35;87.54;91430.47;5095454;28;20036;-39
2021/11/29 07:09:46;;;;;;;41.22;26.02;;;;;;;9.35;87.89;91422.22;5094951;28;20113;-38
2021/11/29 07:12:15;;;;;;;36.72;23.63;;;;;;;9.31;87.89;91463.97;5097262;27;20696;-38
2021/11/29 07:14:41;;;;;;;57.92;37.60;;;;;;;9.28;88.22;91440.38;5099495;28;20523;-39
2021/11/29 07:17:07;;;;;;;36.75;21.92;;;;;;;9.26;88.23;91442.25;5095380;28;20061;-39
2021/11/29 07:19:32;;;;;;;21.00;15.13;;;;;;;9.32;88.33;91453.66;5096607;28;20533;-39
2021/11/29 07:21:58;;;;;;;24.80;16.67;;;;;;;9.19;88.46;91498.97;5095020;28;20566;-39
2021/11/29 07:24:23;;;;;;;3.00;2.38;;;;;;;8.91;85.08;91510.81;5095158;28;20041;-37
2021/11/29 07:26:49;;;;;;;3.20;2.28;;;;;;;8.91;84.98;91450.25;5093892;28;20028;-37
2021/11/29 07:29:15;;;;;;;5.05;2.60;;;;;;;8.92;85.07;91437.97;5097609;28;20035;-38
2021/11/29 07:31:42;;;;;;;10.90;6.72;;;;;;;8.93;85.25;91426.34;5093966;28;20027;-37
2021/11/29 07:34:07;;;;;;;7.75;6.22;;;;;;;9.08;85.19;91447.28;5100363;28;20106;-36
2021/11/29 07:36:33;;;;;;;2.03;1.70;;;;;;;9.26;84.99;91437.47;5097552;28;20168;-37
2021/11/29 07:38:59;;;;;;;4.50;2.70;;;;;;;9.18;86.48;91442.47;5083865;28;20035;-37
2021/11/29 07:41:24;;;;;;;5.00;3.45;;;;;;;9.27;87.17;91438.91;5095184;28;20762;-36
2021/11/29 07:43:50;;;;;;;3.45;3.15;;;;;;;9.08;87.38;91430.75;5095045;28;20030;-38
2021/11/29 07:46:17;;;;;;;4.28;2.88;;;;;;;8.98;87.65;91405.34;5094783;28;20512;-37
2021/11/29 07:48:43;;;;;;;4.55;3.35;;;;;;;9.31;86.93;91452.97;5092916;28;20036;-36
2021/11/29 07:51:09;;;;;;;13.15;7.13;;;;;;;9.39;87.18;91448.00;5095475;28;20476;-37
2021/11/29 07:53:34;;;;;;;65.55;35.70;;;;;;;9.53;87.26;91462.66;5096445;28;20035;-37
2021/11/29 07:56:00;;;;;;;15.98;11.30;;;;;;;9.38;89.12;91456.81;5100163;28;20035;-37
2021/11/29 07:58:26;;;;;;;4.57;3.95;;;;;;;9.39;87.09;91458.28;5101175;28;20031;-37
2021/11/29 08:00:52;;;;;;;4.90;3.42;;;;;;;9.48;87.99;91458.22;5097958;28;20031;-37
2021/11/29 08:03:18;;;;;;;4.03;3.60;;;;;;;9.71;88.08;91454.88;5099709;28;20050;-37
2021/11/29 08:05:44;;;;;;;8.50;5.45;;;;;;;9.81;87.43;91455.53;5100257;28;20031;-36
2021/11/29 08:08:10;;;;;;;6.55;5.38;;;;;;;9.69;87.46;91465.75;5100346;28;20046;-37
2021/11/29 08:23:00;;;;;;;3.13;2.10;;;;;;;10.40;83.26;91455.19;5119599;27;20607;-37
2021/11/29 08:25:26;;;;;;;3.30;3.03;;;;;;;10.57;83.43;91451.38;5118221;27;20035;-38
2021/11/29 08:27:52;;;;;;;84.95;67.25;;;;;;;10.71;83.81;91462.56;5117779;28;20558;-38
2021/11/29 08:30:19;;;;;;;15.00;10.98;;;;;;;10.81;83.50;91452.13;5106127;27;20031;-36
2021/11/29 08:32:45;;;;;;;25.45;17.75;;;;;;;10.88;83.14;91446.38;5123899;27;20040;-37
2021/11/29 08:35:12;;;;;;;28.98;19.13;;;;;;;11.06;82.45;91436.44;5125118;27;20032;-37
2021/11/29 08:37:39;;;;;;;23.88;15.07;;;;;;;11.13;82.36;91432.00;5118065;27;20458;-39
2021/11/29 08:40:07;;;;;;;20.35;14.82;;;;;;;11.44;81.22;91443.50;5094225;28;20016;-38
2021/11/29 08:42:32;;;;;;;19.80;13.65;;;;;;;11.57;79.89;91444.91;5095539;28;20019;-36
2021/11/29 08:44:58;;;;;;;17.45;13.70;;;;;;;11.46;80.53;91429.09;5097540;28;20027;-37
2021/11/29 08:47:24;;;;;;;13.07;10.43;;;;;;;11.52;79.40;91415.63;5091255;28;20689;-37
2021/11/29 08:49:50;;;;;;;10.57;7.25;;;;;;;11.19;79.92;91413.00;5090152;28;20028;-36
2021/11/29 08:52:16;;;;;;;6.63;4.30;;;;;;;11.25;80.10;91422.38;5087490;28;20029;-37
2021/11/29 08:54:42;;;;;;;7.72;3.65;;;;;;;11.32;80.73;91431.75;5087351;28;20444;-37
2021/11/29 08:57:08;;;;;;;5.72;4.43;;;;;;;11.30;80.86;91429.56;5091452;28;20044;-38
2021/11/29 08:59:34;;;;;;;12.70;7.78;;;;;;;11.19;81.61;91457.22;5092835;28;20557;-37
2021/11/29 09:01:59;;;;;;;14.45;11.70;;;;;;;11.12;81.59;91450.59;5083874;28;20091;-36
2021/11/29 09:04:25;;;;;;;19.58;14.40;;;;;;;10.94;82.15;91455.03;5091209;28;20106;-38
2021/11/29 09:06:51;;;;;;;20.33;14.55;;;;;;;10.71;83.06;91457.03;5091162;28;20073;-37
2021/11/29 09:09:16;;;;;;;11.40;9.25;;;;;;;10.55;83.82;91496.13;5096638;28;20016;-36
2021/11/29 09:11:42;;;;;;;9.00;2.63;;;;;;;10.00;78.92;91611.78;5094192;28;20030;-35
2021/11/29 09:14:08;;;;;;;1.23;1.13;;;;;;;9.33;75.87;91623.13;5092356;28;20039;-35
2021/11/29 09:16:33;;;;;;;2.22;1.83;;;;;;;8.70;77.72;91632.50;5092966;28;20404;-34
2021/11/29 09:18:59;;;;;;;1.55;1.42;;;;;;;8.18;79.01;91628.72;5095977;28;20066;-35
2021/11/29 09:21:25;;;;;;;3.22;1.52;;;;;;;8.13;81.01;91646.94;5093775;28;20040;-36
2021/11/29 09:23:51;;;;;;;1.60;1.48;;;;;;;7.85;81.47;91633.84;5081730;28;20066;-35
2021/11/29 09:26:17;;;;;;;104.10;11.48;;;;;;;7.75;82.37;91635.13;5080845;28;20016;-35
2021/11/29 09:28:43;;;;;;;2.92;2.10;;;;;;;7.72;82.96;91642.50;5072440;28;20107;-35
2021/11/29 09:31:10;;;;;;;3.33;1.73;;;;;;;7.72;83.37;91647.97;5068472;28;20022;-35
2021/11/29 09:33:36;;;;;;;42.20;5.93;;;;;;;7.26;82.71;91614.28;5069337;28;20068;-34
2021/11/29 09:36:03;;;;;;;3.28;2.45;;;;;;;7.53;83.45;91645.91;5071723;28;20024;-34
2021/11/29 09:38:29;;;;;;;5.47;3.33;;;;;;;7.62;83.65;91628.72;5076045;28;20020;-34
2021/11/29 09:40:54;;;;;;;3.80;2.55;;;;;;;7.73;83.21;91632.22;5086135;28;20028;-34
2021/11/29 09:43:21;;;;;;;4.00;2.50;;;;;;;7.75;82.54;91652.34;5080557;28;20074;-34
2021/11/29 09:45:49;;;;;;;6.45;4.32;;;;;;;7.91;82.43;91670.00;5078175;28;20028;-35
2021/11/29 09:48:15;;;;;;;2.25;1.92;;;;;;;7.73;81.27;91671.41;5078913;28;20031;-35
2021/11/29 09:50:44;;;;;;;4.28;2.60;;;;;;;7.74;80.00;91669.38;5077321;28;20023;-35
2021/11/29 09:53:11;;;;;;;4.28;3.17;;;;;;;7.80;80.48;91676.06;5077459;28;20180;-36
2021/11/29 09:55:37;;;;;;;5.45;3.47;;;;;;;7.80;80.42;91681.53;5079702;28;20043;-35
2021/11/29 09:58:06;;;;;;;3.70;2.10;;;;;;;7.76;79.57;91662.00;5082194;28;20020;-35
2021/11/29 10:00:44;;;;;;;2.08;1.60;;;;;;;7.83;80.11;91647.44;5068950;28;20025;-35
2021/11/29 10:03:10;;;;;;;5.28;2.92;;;;;;;8.06;79.73;91625.06;5069110;28;20650;-35
2021/11/29 10:05:36;;;;;;;2.50;1.77;;;;;;;8.02;79.37;91630.25;5068813;28;20123;-34
2021/11/29 10:08:25;;;;;;;2.72;2.50;;;;;;;8.19;80.19;91630.13;5069204;28;20040;-34
2021/11/29 10:10:57;;;;;;;5.20;3.42;;;;;;;8.16;80.08;91632.03;5068723;28;20064;-35
2021/11/29 10:13:24;;;;;;;5.72;4.93;;;;;;;8.23;80.00;91628.41;5078643;28;20032;-35
2021/11/29 10:15:50;;;;;;;3.60;3.20;;;;;;;8.36;80.34;91636.25;5087898;28;20034;-35
2021/11/29 10:18:26;;;;;;;4.05;2.85;;;;;;;8.49;79.86;91628.91;5076726;28;20031;-34
2021/11/29 10:20:59;;;;;;;2.22;1.70;;;;;;;8.65;78.37;91625.25;5076202;28;20029;-36
2021/11/29 10:23:34;;;;;;;4.25;3.00;;;;;;;8.69;78.24;91630.31;5076711;28;20028;-35
2021/11/29 10:26:09;;;;;;;3.10;2.63;;;;;;;8.64;78.33;91636.84;5077542;28;20024;-35
2021/11/29 10:28:37;;;;;;;3.58;2.88;;;;;;;8.29;78.65;91642.63;5077845;28;20032;-34
2021/11/29 10:31:28;;;;;;;5.20;4.10;;;;;;;8.63;79.12;91635.41;5075937;28;20032;-34
2021/11/29 10:33:54;;;;;;;16.65;12.57;;;;;;;8.97;78.42;91635.78;5076963;28;20036;-35
2021/11/29 10:36:21;;;;;;;4.00;3.60;;;;;;;9.14;76.75;91632.13;5078199;28;20027;-35
2021/11/29 10:38:51;;;;;;;4.20;3.03;;;;;;;9.00;75.93;91633.91;5078064;28;20512;-35
2021/11/29 10:41:31;;;;;;;4.10;3.50;;;;;;;9.46;75.64;91634.38;5078005;28;20039;-35
2021/11/29 10:43:57;;;;;;;6.57;3.38;;;;;;;10.04;74.23;91632.09;5078062;28;20669;-33
2021/11/29 10:46:35;;;;;;;4.15;2.78;;;;;;;10.72;71.15;91637.91;5077296;28;20028;-36
2021/11/29 10:49:08;;;;;;;7.50;5.18;;;;;;;11.19;69.39;91629.19;5078137;28;20024;-35
2021/11/29 10:51:35;;;;;;;2.83;2.33;;;;;;;11.09;68.45;91636.09;5078605;28;20154;-34
2021/11/29 10:54:06;;;;;;;3.75;1.30;;;;;;;10.77;67.87;91625.78;5076355;28;20036;-36
2021/11/29 10:56:35;;;;;;;2.75;2.40;;;;;;;10.58;69.13;91629.44;5077134;28;20035;-35
2021/11/29 10:59:05;;;;;;;3.63;3.30;;;;;;;10.31;69.88;91632.50;5077464;28;20073;-36
2021/11/29 11:01:46;;;;;;;3.58;2.95;;;;;;;10.44;71.27;91643.03;5070067;28;20497;-36
2021/11/29 11:04:33;;;;;;;2.83;2.42;;;;;;;10.06;70.59;91637.00;5075610;28;20421;-35
2021/11/29 11:07:01;;;;;;;3.10;2.40;;;;;;;10.07;72.01;91624.69;5070041;28;20360;-35
2021/11/29 11:09:29;;;;;;;3.13;2.38;;;;;;;10.07;71.61;91627.44;5067509;28;20498;-36
2021/11/29 11:12:03;;;;;;;6.60;4.97;;;;;;;10.08;71.43;91624.06;5073139;28;20420;-36
2021/11/29 11:14:37;;;;;;;2.67;2.20;;;;;;;9.87;70.76;91640.59;5075295;28;20036;-36
2021/11/29 11:17:02;;;;;;;2.10;1.90;;;;;;;9.82;70.90;91631.31;5079058;28;20116;-35
2021/11/29 11:19:31;;;;;;;4.07;2.03;;;;;;;9.76;71.07;91647.47;5077481;28;20198;-36
2021/11/29 11:22:03;;;;;;;4.22;2.92;;;;;;;9.66;72.67;91654.28;5076483;28;20056;-36
2021/11/29 11:24:32;;;;;;;7.38;5.07;;;;;;;9.58;72.61;91640.72;5079829;28;20073;-37
2021/11/29 11:26:59;;;;;;;;;;;;;;;9.56;73.05;91650.88;5080356;28;20028;-36
2021/11/29 11:29:58;;;;;;;2.67;2.08;;;;;;;9.21;73.07;91655.31;5078057;28;20505;-34
2021/11/29 11:32:32;;;;;;;3.33;2.60;;;;;;;9.07;73.90;91661.28;5070790;28;20020;-34
2021/11/29 11:35:04;;;;;;;3.58;2.50;;;;;;;8.97;72.35;91657.09;5071111;28;20039;-34
2021/11/29 11:37:34;;;;;;;11.10;5.88;;;;;;;8.94;74.69;91647.97;5081187;28;20024;-34
2021/11/29 11:40:02;;;;;;;5.10;2.95;;;;;;;9.20;74.67;91640.84;5077189;28;20106;-35
2021/11/29 11:42:27;;;;;;;4.22;3.20;;;;;;;9.31;73.39;91639.50;5080420;28;20028;-35
2021/11/29 11:44:55;;;;;;;2.53;2.30;;;;;;;9.31;72.99;91639.50;5077602;28;20023;-36
2021/11/29 11:47:21;;;;;;;9.13;7.25;;;;;;;9.26;72.84;91627.47;5081362;28;20060;-36